createdAt,value
2023-05-21T00:00:40.835Z,0
2023-05-21T00:04:06.078Z,0
2023-05-21T00:07:31.235Z,0
2023-05-21T00:10:56.435Z,0
2023-05-21T00:14:21.612Z,0
2023-05-21T00:17:46.852Z,0
2023-05-21T00:21:12.080Z,0
2023-05-21T00:24:37.200Z,0
2023-05-21T00:28:02.399Z,0
2023-05-21T00:31:27.649Z,0
2023-05-21T00:34:52.796Z,0
2023-05-21T00:38:17.997Z,0
2023-05-21T00:41:43.224Z,0
2023-05-21T00:45:08.386Z,0
2023-05-21T00:48:33.614Z,0
2023-05-21T00:51:58.816Z,0
2023-05-21T00:55:24.084Z,0
2023-05-21T00:58:49.258Z,0
2023-05-21T01:02:14.477Z,0
2023-05-21T01:05:39.616Z,0
2023-05-21T01:09:05.169Z,0
2023-05-21T01:12:30.077Z,0
2023-05-21T01:15:55.229Z,0
2023-05-21T01:19:20.458Z,0
2023-05-21T01:22:45.635Z,0
2023-05-21T01:26:10.841Z,0
2023-05-21T01:29:36.077Z,0
2023-05-21T01:33:01.275Z,0
2023-05-21T01:36:28.494Z,0
2023-05-21T01:39:53.701Z,0
2023-05-21T01:43:18.945Z,0
2023-05-21T01:46:44.175Z,0
2023-05-21T01:50:09.331Z,0
2023-05-21T01:53:34.543Z,0
2023-05-21T01:56:59.767Z,0
2023-05-21T02:00:25.758Z,0
2023-05-21T02:03:51.111Z,0
2023-05-21T02:07:16.189Z,0
2023-05-21T02:10:41.385Z,0
2023-05-21T02:14:06.567Z,0
2023-05-21T02:17:31.764Z,0
2023-05-21T02:20:56.977Z,0
2023-05-21T02:24:22.140Z,0
2023-05-21T02:27:47.364Z,0
2023-05-21T02:31:12.566Z,0
2023-05-21T02:34:37.761Z,0
2023-05-21T02:38:03.016Z,0
2023-05-21T02:41:28.123Z,0
2023-05-21T02:44:53.320Z,0
2023-05-21T02:48:18.517Z,0
2023-05-21T02:51:43.709Z,0
2023-05-21T02:55:08.939Z,0
2023-05-21T02:58:34.118Z,0
2023-05-21T03:01:59.344Z,0
2023-05-21T03:05:24.522Z,0
2023-05-21T03:08:49.720Z,0
2023-05-21T03:12:14.935Z,0
2023-05-21T03:15:40.133Z,0
2023-05-21T03:19:05.324Z,0
2023-05-21T03:22:30.492Z,0
2023-05-21T03:25:55.699Z,0
2023-05-21T03:29:20.918Z,0
2023-05-21T03:32:46.111Z,0
2023-05-21T03:36:11.284Z,0
2023-05-21T03:39:37.930Z,0
2023-05-21T03:43:03.140Z,0
2023-05-21T03:46:28.394Z,0
2023-05-21T03:49:53.554Z,0
2023-05-21T03:53:18.741Z,0
2023-05-21T03:56:43.918Z,0
2023-05-21T04:00:09.109Z,0
2023-05-21T04:03:34.448Z,0
2023-05-21T04:06:59.529Z,6
2023-05-21T04:10:24.723Z,6
2023-05-21T04:13:49.944Z,6
2023-05-21T04:17:15.136Z,6
2023-05-21T04:20:40.379Z,6
2023-05-21T04:24:05.556Z,6
2023-05-21T04:27:30.763Z,6
2023-05-21T04:30:55.976Z,6
2023-05-21T04:34:21.121Z,11
2023-05-21T04:37:46.386Z,11
2023-05-21T04:41:11.560Z,23
2023-05-21T04:44:36.773Z,28
2023-05-21T04:48:02.033Z,28
2023-05-21T04:51:27.183Z,39
2023-05-21T04:54:52.410Z,39
2023-05-21T04:58:17.560Z,39
2023-05-21T05:01:42.731Z,45
2023-05-21T05:05:07.959Z,51
2023-05-21T05:08:33.145Z,51
2023-05-21T05:11:58.470Z,56
2023-05-21T05:15:23.542Z,56
2023-05-21T05:18:48.756Z,56
2023-05-21T05:22:13.966Z,62
2023-05-21T05:25:39.350Z,62
2023-05-21T05:29:04.483Z,68
2023-05-21T05:32:29.686Z,68
2023-05-21T05:35:54.870Z,68
2023-05-21T05:39:20.069Z,68
2023-05-21T05:42:45.385Z,51
2023-05-21T05:46:10.653Z,45
2023-05-21T05:49:35.750Z,45
2023-05-21T05:53:00.933Z,56
2023-05-21T05:56:26.171Z,51
2023-05-21T05:59:51.381Z,51
2023-05-21T06:03:16.624Z,68
2023-05-21T06:06:41.710Z,90
2023-05-21T06:10:06.917Z,84
2023-05-21T06:13:32.087Z,84
2023-05-21T06:16:57.295Z,79
2023-05-21T06:20:22.540Z,90
2023-05-21T06:23:47.726Z,101
2023-05-21T06:27:12.952Z,79
2023-05-21T06:30:38.139Z,56
2023-05-21T06:34:03.452Z,68
2023-05-21T06:37:28.606Z,79
2023-05-21T06:40:53.752Z,68
2023-05-21T06:44:18.932Z,84
2023-05-21T06:47:44.182Z,84
2023-05-21T06:51:09.341Z,73
2023-05-21T06:54:34.620Z,62
2023-05-21T06:57:59.808Z,56
2023-05-21T07:01:25.045Z,62
2023-05-21T07:04:50.182Z,73
2023-05-21T07:08:15.428Z,68
2023-05-21T07:11:40.682Z,68
2023-05-21T07:15:05.820Z,79
2023-05-21T07:18:31.029Z,84
2023-05-21T07:21:56.246Z,96
2023-05-21T07:25:22.184Z,107
2023-05-21T07:28:47.474Z,113
2023-05-21T07:32:12.599Z,101
2023-05-21T07:35:37.944Z,101
2023-05-21T07:39:02.978Z,107
2023-05-21T07:42:28.157Z,107
2023-05-21T07:45:53.429Z,96
2023-05-21T07:49:18.663Z,107
2023-05-21T07:52:43.841Z,107
2023-05-21T07:56:09.022Z,101
2023-05-21T07:59:34.265Z,96
2023-05-21T08:02:59.554Z,90
2023-05-21T08:06:24.676Z,96
2023-05-21T08:09:49.930Z,96
2023-05-21T08:13:15.120Z,84
2023-05-21T08:16:40.399Z,73
2023-05-21T08:20:05.564Z,62
2023-05-21T08:23:31.290Z,56
2023-05-21T08:26:56.497Z,62
2023-05-21T08:30:21.677Z,62
2023-05-21T08:33:46.962Z,68
2023-05-21T08:37:12.288Z,68
2023-05-21T08:40:37.337Z,73
2023-05-21T08:44:02.541Z,84
2023-05-21T08:47:27.745Z,90
2023-05-21T08:50:52.972Z,84
2023-05-21T08:54:18.233Z,79
2023-05-21T08:57:43.403Z,84
2023-05-21T09:01:08.670Z,79
2023-05-21T09:04:33.937Z,79
2023-05-21T09:07:59.158Z,73
2023-05-21T09:11:24.341Z,73
2023-05-21T09:14:49.524Z,90
2023-05-21T09:18:14.782Z,84
2023-05-21T09:21:39.936Z,90
2023-05-21T09:25:05.151Z,84
2023-05-21T09:28:30.481Z,96
2023-05-21T09:31:55.648Z,96
2023-05-21T09:35:20.767Z,113
2023-05-21T09:38:46.000Z,113
2023-05-21T09:42:11.239Z,107
2023-05-21T09:45:36.566Z,90
2023-05-21T09:49:01.669Z,118
2023-05-21T09:52:26.861Z,118
2023-05-21T09:55:52.045Z,118
2023-05-21T09:59:17.232Z,51
2023-05-21T10:02:42.548Z,129
2023-05-21T10:06:07.695Z,124
2023-05-21T10:09:32.923Z,129
2023-05-21T10:12:58.102Z,124
2023-05-21T10:16:23.321Z,129
2023-05-21T10:19:48.517Z,135
2023-05-21T10:23:13.708Z,96
2023-05-21T10:26:38.886Z,141
2023-05-21T10:30:04.141Z,141
2023-05-21T10:33:29.388Z,141
2023-05-21T10:36:54.598Z,141
2023-05-21T10:40:19.806Z,146
2023-05-21T10:43:45.023Z,141
2023-05-21T10:47:10.220Z,141
2023-05-21T10:50:35.717Z,146
2023-05-21T10:54:00.731Z,146
2023-05-21T10:57:25.813Z,146
2023-05-21T11:00:51.069Z,146
2023-05-21T11:04:16.265Z,141
2023-05-21T11:07:41.474Z,129
2023-05-21T11:11:06.694Z,141
2023-05-21T11:14:31.910Z,146
2023-05-21T11:17:57.111Z,146
2023-05-21T11:21:22.289Z,135
2023-05-21T11:24:49.340Z,135
2023-05-21T11:28:12.697Z,129
2023-05-21T11:31:37.947Z,118
2023-05-21T11:35:03.074Z,124
2023-05-21T11:38:28.295Z,129
2023-05-21T11:41:53.551Z,124
2023-05-21T11:45:18.769Z,129
2023-05-21T11:48:43.923Z,135
2023-05-21T11:52:09.139Z,124
2023-05-21T11:55:34.363Z,124
2023-05-21T11:58:59.560Z,129
2023-05-21T12:02:24.835Z,118
2023-05-21T12:05:50.171Z,118
2023-05-21T12:09:15.373Z,107
2023-05-21T12:12:53.732Z,107
2023-05-21T12:16:06.909Z,101
2023-05-21T12:19:31.154Z,107
2023-05-21T12:22:56.320Z,113
2023-05-21T12:26:21.507Z,118
2023-05-21T12:29:46.773Z,101
2023-05-21T12:33:11.968Z,101
2023-05-21T12:36:37.238Z,96
2023-05-21T12:40:02.428Z,96
2023-05-21T12:43:27.627Z,107
2023-05-21T12:46:52.868Z,113
2023-05-21T12:50:18.091Z,96
2023-05-21T12:53:43.317Z,101
2023-05-21T12:57:08.518Z,96
2023-05-21T13:00:33.760Z,96
2023-05-21T13:03:59.019Z,96
2023-05-21T13:07:24.264Z,101
2023-05-21T13:10:49.556Z,107
2023-05-21T13:14:14.686Z,107
2023-05-21T13:17:40.044Z,96
2023-05-21T13:21:05.227Z,96
2023-05-21T13:24:30.461Z,96
2023-05-21T13:27:55.698Z,90
2023-05-21T13:31:20.958Z,90
2023-05-21T13:34:46.233Z,39
2023-05-21T13:38:11.483Z,90
2023-05-21T13:41:36.747Z,90
2023-05-21T13:45:02.126Z,90
2023-05-21T13:48:27.315Z,90
2023-05-21T13:51:52.527Z,84
2023-05-21T13:55:17.752Z,51
2023-05-21T13:58:43.022Z,84
2023-05-21T14:02:08.346Z,79
2023-05-21T14:05:33.559Z,79
2023-05-21T14:08:58.789Z,79
2023-05-21T14:12:24.058Z,79
2023-05-21T14:15:49.315Z,73
2023-05-21T14:19:14.544Z,51
2023-05-21T14:22:39.780Z,73
2023-05-21T14:26:04.989Z,34
2023-05-21T14:29:30.308Z,73
2023-05-21T14:32:57.860Z,68
2023-05-21T14:36:20.806Z,68
2023-05-21T14:39:46.030Z,62
2023-05-21T14:43:11.278Z,62
2023-05-21T14:46:36.549Z,28
2023-05-21T14:50:01.754Z,56
2023-05-21T14:53:26.968Z,45
2023-05-21T14:56:52.234Z,34
2023-05-21T15:00:17.463Z,34
2023-05-21T15:03:42.860Z,51
2023-05-21T15:07:08.002Z,51
2023-05-21T15:10:33.236Z,56
2023-05-21T15:47:10.698Z,17
2023-05-21T15:50:35.937Z,34
2023-05-21T15:54:01.107Z,34
2023-05-21T15:57:26.351Z,34
2023-05-21T16:00:51.618Z,34
2023-05-21T16:04:16.856Z,34
2023-05-21T16:07:42.067Z,23
2023-05-21T16:11:07.285Z,28
2023-05-21T16:14:32.502Z,28
2023-05-21T16:17:57.733Z,28
2023-05-21T16:21:22.990Z,23
2023-05-21T16:24:48.204Z,23
2023-05-21T16:28:13.421Z,23
2023-05-21T16:31:38.658Z,23
2023-05-21T16:35:03.865Z,23
2023-05-21T16:38:29.227Z,23
2023-05-21T16:41:54.320Z,17
2023-05-21T16:45:19.544Z,11
2023-05-21T16:48:44.771Z,11
2023-05-21T16:52:10.009Z,11
2023-05-21T16:55:35.612Z,11
2023-05-21T16:59:00.475Z,11
2023-05-21T17:02:25.755Z,11
2023-05-21T17:05:50.940Z,11
2023-05-21T17:09:17.573Z,11
2023-05-21T17:12:41.358Z,11
2023-05-21T17:16:06.541Z,11
2023-05-21T17:19:31.856Z,11
2023-05-21T17:22:57.166Z,11
2023-05-21T17:26:22.334Z,11
2023-05-21T17:29:47.596Z,11
2023-05-21T17:33:12.864Z,11
2023-05-21T17:36:38.060Z,11
2023-05-21T17:40:03.300Z,11
2023-05-21T17:43:28.549Z,6
2023-05-21T17:46:53.832Z,6
2023-05-21T17:50:19.778Z,6
2023-05-21T17:53:45.010Z,6
2023-05-21T17:57:10.259Z,6
2023-05-21T18:00:35.532Z,6
2023-05-21T18:04:00.737Z,6
2023-05-21T18:07:25.923Z,6
2023-05-21T18:10:51.200Z,6
2023-05-21T18:14:16.463Z,6
2023-05-21T18:17:41.812Z,6
2023-05-21T18:21:06.949Z,0
2023-05-21T18:24:32.697Z,0
2023-05-21T18:27:57.938Z,0
2023-05-21T18:31:23.146Z,0
2023-05-21T18:34:48.470Z,0
2023-05-21T18:38:13.665Z,0
2023-05-21T18:41:38.858Z,0
2023-05-21T18:45:04.099Z,0
2023-05-21T18:48:29.379Z,0
2023-05-21T18:51:54.653Z,0
2023-05-21T18:55:19.888Z,0
2023-05-21T18:58:45.102Z,0
2023-05-21T19:02:10.337Z,0
2023-05-21T19:05:35.618Z,0
2023-05-21T19:09:00.768Z,0
2023-05-21T19:12:26.050Z,0
2023-05-21T19:15:51.267Z,0
2023-05-21T19:19:16.628Z,0
2023-05-21T19:22:41.802Z,0
2023-05-21T19:26:07.014Z,0
2023-05-21T19:29:32.329Z,0
2023-05-21T19:32:57.546Z,0
2023-05-21T19:36:22.768Z,0
2023-05-21T19:39:48.088Z,0
2023-05-21T19:43:13.260Z,0
2023-05-21T19:46:38.496Z,0
2023-05-21T19:50:03.667Z,0
2023-05-21T19:53:28.870Z,0
2023-05-21T19:56:54.081Z,0
2023-05-21T20:00:19.288Z,0
2023-05-21T20:03:44.543Z,0
2023-05-21T20:07:09.733Z,0
2023-05-21T20:10:34.944Z,0
2023-05-21T20:14:00.146Z,0
2023-05-21T20:17:25.368Z,0
2023-05-21T20:20:50.558Z,0
2023-05-21T20:24:15.709Z,0
2023-05-21T20:27:40.894Z,0
2023-05-21T20:31:06.099Z,0
2023-05-21T20:34:31.254Z,0
2023-05-21T20:37:56.564Z,0
2023-05-21T20:41:21.738Z,0
2023-05-21T20:44:46.912Z,0
2023-05-21T20:48:12.123Z,0
2023-05-21T20:51:37.318Z,0
2023-05-21T20:55:02.571Z,0
2023-05-21T20:58:27.697Z,0
2023-05-21T21:01:52.956Z,0
2023-05-21T21:05:18.109Z,0
2023-05-21T21:08:43.340Z,0
2023-05-21T21:12:21.488Z,0
2023-05-21T21:15:33.707Z,0
2023-05-21T21:18:58.917Z,0
2023-05-21T21:22:24.138Z,0
2023-05-21T21:25:49.308Z,0
2023-05-21T21:29:14.551Z,0
2023-05-21T21:32:39.736Z,0
2023-05-21T21:36:04.918Z,0
2023-05-21T21:39:30.137Z,0
2023-05-21T21:42:55.306Z,0
2023-05-21T21:46:20.568Z,0
2023-05-21T21:49:45.676Z,0
2023-05-21T21:53:10.886Z,0
2023-05-21T21:56:36.106Z,0
2023-05-21T22:00:01.294Z,0
2023-05-21T22:03:26.647Z,0
2023-05-21T22:06:51.697Z,0
2023-05-21T22:10:16.860Z,0
2023-05-21T22:13:42.054Z,0
2023-05-21T22:17:07.250Z,0
2023-05-21T22:20:32.465Z,0
2023-05-21T22:23:57.629Z,0
2023-05-21T22:27:22.841Z,0
2023-05-21T22:30:48.059Z,0
2023-05-21T22:34:13.247Z,0
2023-05-21T22:37:38.447Z,0
2023-05-21T22:41:03.633Z,0
2023-05-21T22:44:28.827Z,0
2023-05-21T22:47:54.026Z,0
2023-05-21T22:51:19.200Z,0
2023-05-21T22:54:44.434Z,0
2023-05-21T22:58:09.609Z,0
2023-05-21T23:01:34.855Z,0
2023-05-21T23:05:00.005Z,0
2023-05-21T23:08:25.188Z,0
2023-05-21T23:11:50.400Z,0
2023-05-21T23:15:15.568Z,0
2023-05-21T23:18:40.773Z,0
2023-05-21T23:22:05.977Z,0
2023-05-21T23:25:31.178Z,0
2023-05-21T23:28:56.409Z,0
2023-05-21T23:32:21.568Z,0
2023-05-21T23:35:46.763Z,0
2023-05-21T23:39:11.951Z,0
2023-05-21T23:42:37.138Z,0
2023-05-21T23:46:02.426Z,0
2023-05-21T23:49:27.553Z,0
2023-05-21T23:52:52.733Z,0
2023-05-21T23:56:17.933Z,0
2023-05-21T23:59:43.134Z,0
